sensor_id;sensor_type;location;lat;lon;timestamp;temperature;humidity
21167;DHT22;10741;52.272;9.580;2023-10-08T00:02:17;14.00;99.90
21167;DHT22;10741;52.272;9.580;2023-10-08T00:04:48;13.90;99.90
21167;DHT22;10741;52.272;9.580;2023-10-08T00:07:20;13.80;99.90
21167;DHT22;10741;52.272;9.580;2023-10-08T00:09:50;13.70;99.90
21167;DHT22;10741;52.272;9.580;2023-10-08T00:12:20;13.60;99.90
21167;DHT22;10741;52.272;9.580;2023-10-08T00:14:47;13.60;99.90
21167;DHT22;10741;52.272;9.580;2023-10-08T00:17:16;13.60;99.90
21167;DHT22;10741;52.272;9.580;2023-10-08T00:19:45;13.60;99.90
21167;DHT22;10741;52.272;9.580;2023-10-08T00:22:11;13.60;99.90
21167;DHT22;10741;52.272;9.580;2023-10-08T00:24:41;13.50;99.90
21167;DHT22;10741;52.272;9.580;2023-10-08T00:27:08;13.50;99.90
21167;DHT22;10741;52.272;9.580;2023-10-08T00:29:34;13.50;99.90
21167;DHT22;10741;52.272;9.580;2023-10-08T00:32:04;13.40;99.90
21167;DHT22;10741;52.272;9.580;2023-10-08T00:34:38;13.30;99.90
21167;DHT22;10741;52.272;9.580;2023-10-08T00:37:07;13.30;99.90
21167;DHT22;10741;52.272;9.580;2023-10-08T00:39:34;13.30;99.90
21167;DHT22;10741;52.272;9.580;2023-10-08T00:42:03;13.30;99.90
21167;DHT22;10741;52.272;9.580;2023-10-08T00:44:34;13.30;99.90
21167;DHT22;10741;52.272;9.580;2023-10-08T00:47:06;13.20;99.90
21167;DHT22;10741;52.272;9.580;2023-10-08T00:49:32;13.10;99.90
21167;DHT22;10741;52.272;9.580;2023-10-08T00:52:11;13.10;99.90
21167;DHT22;10741;52.272;9.580;2023-10-08T00:54:42;13.10;99.90
21167;DHT22;10741;52.272;9.580;2023-10-08T00:57:26;13.00;99.90
21167;DHT22;10741;52.272;9.580;2023-10-08T00:59:52;13.00;99.90
21167;DHT22;10741;52.272;9.580;2023-10-08T01:02:23;12.80;99.90
21167;DHT22;10741;52.272;9.580;2023-10-08T01:04:54;12.80;99.90
21167;DHT22;10741;52.272;9.580;2023-10-08T01:07:22;12.80;99.90
21167;DHT22;10741;52.272;9.580;2023-10-08T01:09:49;12.70;99.90
21167;DHT22;10741;52.272;9.580;2023-10-08T01:12:24;12.60;99.90
21167;DHT22;10741;52.272;9.580;2023-10-08T01:14:50;12.40;99.90
21167;DHT22;10741;52.272;9.580;2023-10-08T01:17:20;12.40;99.90
21167;DHT22;10741;52.272;9.580;2023-10-08T01:19:50;12.40;99.90
21167;DHT22;10741;52.272;9.580;2023-10-08T01:22:36;12.30;99.90
21167;DHT22;10741;52.272;9.580;2023-10-08T01:25:05;12.20;99.90
21167;DHT22;10741;52.272;9.580;2023-10-08T01:27:31;12.20;99.90
21167;DHT22;10741;52.272;9.580;2023-10-08T01:30:01;12.10;99.90
21167;DHT22;10741;52.272;9.580;2023-10-08T01:32:43;12.10;99.90
21167;DHT22;10741;52.272;9.580;2023-10-08T01:35:09;12.10;99.90
21167;DHT22;10741;52.272;9.580;2023-10-08T01:37:51;12.00;99.90
21167;DHT22;10741;52.272;9.580;2023-10-08T01:40:18;11.90;99.90
21167;DHT22;10741;52.272;9.580;2023-10-08T01:42:44;11.90;99.90
21167;DHT22;10741;52.272;9.580;2023-10-08T01:45:11;11.80;99.90
21167;DHT22;10741;52.272;9.580;2023-10-08T01:47:43;11.80;99.90
21167;DHT22;10741;52.272;9.580;2023-10-08T01:50:09;11.80;99.90
21167;DHT22;10741;52.272;9.580;2023-10-08T01:52:50;11.80;99.90
21167;DHT22;10741;52.272;9.580;2023-10-08T01:55:19;11.70;99.90
21167;DHT22;10741;52.272;9.580;2023-10-08T01:57:49;11.70;99.90
21167;DHT22;10741;52.272;9.580;2023-10-08T02:00:19;11.60;99.90
21167;DHT22;10741;52.272;9.580;2023-10-08T02:02:51;11.70;99.90
21167;DHT22;10741;52.272;9.580;2023-10-08T02:05:17;11.70;99.90
21167;DHT22;10741;52.272;9.580;2023-10-08T02:07:47;11.70;99.90
21167;DHT22;10741;52.272;9.580;2023-10-08T02:10:13;11.80;99.90
21167;DHT22;10741;52.272;9.580;2023-10-08T02:12:41;11.80;99.90
21167;DHT22;10741;52.272;9.580;2023-10-08T02:15:08;11.80;99.90
21167;DHT22;10741;52.272;9.580;2023-10-08T02:17:34;11.90;99.90
21167;DHT22;10741;52.272;9.580;2023-10-08T02:20:01;11.90;99.90
21167;DHT22;10741;52.272;9.580;2023-10-08T02:22:33;11.80;99.90
21167;DHT22;10741;52.272;9.580;2023-10-08T02:24:59;11.80;99.90
21167;DHT22;10741;52.272;9.580;2023-10-08T02:27:28;11.80;99.90
21167;DHT22;10741;52.272;9.580;2023-10-08T02:29:54;11.90;99.90
21167;DHT22;10741;52.272;9.580;2023-10-08T02:32:21;11.80;99.90
21167;DHT22;10741;52.272;9.580;2023-10-08T02:34:49;11.80;99.90
21167;DHT22;10741;52.272;9.580;2023-10-08T02:37:16;11.80;99.90
21167;DHT22;10741;52.272;9.580;2023-10-08T02:39:42;11.80;99.90
21167;DHT22;10741;52.272;9.580;2023-10-08T02:42:08;11.80;99.90
21167;DHT22;10741;52.272;9.580;2023-10-08T02:44:36;11.80;99.90
21167;DHT22;10741;52.272;9.580;2023-10-08T02:47:10;11.90;99.90
21167;DHT22;10741;52.272;9.580;2023-10-08T02:49:42;11.90;99.90
21167;DHT22;10741;52.272;9.580;2023-10-08T02:52:08;11.80;99.90
21167;DHT22;10741;52.272;9.580;2023-10-08T02:54:38;11.80;99.90
21167;DHT22;10741;52.272;9.580;2023-10-08T02:57:04;11.90;99.90
21167;DHT22;10741;52.272;9.580;2023-10-08T02:59:33;11.90;99.90
21167;DHT22;10741;52.272;9.580;2023-10-08T03:02:12;11.90;99.90
21167;DHT22;10741;52.272;9.580;2023-10-08T03:04:49;11.80;99.90
21167;DHT22;10741;52.272;9.580;2023-10-08T03:07:17;11.90;99.90
21167;DHT22;10741;52.272;9.580;2023-10-08T03:09:58;11.90;99.90
21167;DHT22;10741;52.272;9.580;2023-10-08T03:12:42;11.90;99.90
21167;DHT22;10741;52.272;9.580;2023-10-08T03:15:08;11.90;99.90
21167;DHT22;10741;52.272;9.580;2023-10-08T03:17:53;11.90;99.90
21167;DHT22;10741;52.272;9.580;2023-10-08T03:20:23;11.90;99.90
21167;DHT22;10741;52.272;9.580;2023-10-08T03:23:09;11.90;99.90
21167;DHT22;10741;52.272;9.580;2023-10-08T03:25:54;11.90;99.90
21167;DHT22;10741;52.272;9.580;2023-10-08T03:28:34;11.90;99.90
21167;DHT22;10741;52.272;9.580;2023-10-08T03:31:01;11.90;99.90
21167;DHT22;10741;52.272;9.580;2023-10-08T03:33:34;11.90;99.90
21167;DHT22;10741;52.272;9.580;2023-10-08T03:36:03;11.80;99.90
21167;DHT22;10741;52.272;9.580;2023-10-08T03:38:49;11.80;99.90
21167;DHT22;10741;52.272;9.580;2023-10-08T03:41:25;11.90;99.90
21167;DHT22;10741;52.272;9.580;2023-10-08T03:43:55;11.80;99.90
21167;DHT22;10741;52.272;9.580;2023-10-08T03:46:31;11.80;99.90
21167;DHT22;10741;52.272;9.580;2023-10-08T03:48:58;11.80;99.90
21167;DHT22;10741;52.272;9.580;2023-10-08T03:51:30;11.90;99.90
21167;DHT22;10741;52.272;9.580;2023-10-08T03:54:00;11.80;99.90
21167;DHT22;10741;52.272;9.580;2023-10-08T03:56:35;11.90;99.90
21167;DHT22;10741;52.272;9.580;2023-10-08T03:59:04;11.90;99.90
21167;DHT22;10741;52.272;9.580;2023-10-08T04:01:39;11.90;99.90
21167;DHT22;10741;52.272;9.580;2023-10-08T04:04:06;11.90;99.90
21167;DHT22;10741;52.272;9.580;2023-10-08T04:06:37;11.90;99.90
21167;DHT22;10741;52.272;9.580;2023-10-08T04:09:05;11.90;99.90
21167;DHT22;10741;52.272;9.580;2023-10-08T04:11:34;11.90;99.90
21167;DHT22;10741;52.272;9.580;2023-10-08T04:14:21;11.90;99.90
21167;DHT22;10741;52.272;9.580;2023-10-08T04:16:47;11.90;99.90
21167;DHT22;10741;52.272;9.580;2023-10-08T04:19:18;11.80;99.90
21167;DHT22;10741;52.272;9.580;2023-10-08T04:21:44;11.90;99.90
21167;DHT22;10741;52.272;9.580;2023-10-08T04:24:11;11.80;99.90
21167;DHT22;10741;52.272;9.580;2023-10-08T04:26:40;11.80;99.90
21167;DHT22;10741;52.272;9.580;2023-10-08T04:29:06;11.90;99.90
21167;DHT22;10741;52.272;9.580;2023-10-08T04:31:33;11.80;99.90
21167;DHT22;10741;52.272;9.580;2023-10-08T04:34:10;11.80;99.90
21167;DHT22;10741;52.272;9.580;2023-10-08T04:36:43;11.80;99.90
21167;DHT22;10741;52.272;9.580;2023-10-08T04:39:15;11.80;99.90
21167;DHT22;10741;52.272;9.580;2023-10-08T04:41:41;11.80;99.90
21167;DHT22;10741;52.272;9.580;2023-10-08T04:44:11;11.80;99.90
21167;DHT22;10741;52.272;9.580;2023-10-08T04:46:43;11.80;99.90
21167;DHT22;10741;52.272;9.580;2023-10-08T04:49:15;11.80;99.90
21167;DHT22;10741;52.272;9.580;2023-10-08T04:51:55;11.80;99.90
21167;DHT22;10741;52.272;9.580;2023-10-08T04:54:26;11.80;99.90
21167;DHT22;10741;52.272;9.580;2023-10-08T04:57:01;11.80;99.90
21167;DHT22;10741;52.272;9.580;2023-10-08T04:59:31;11.80;99.90
21167;DHT22;10741;52.272;9.580;2023-10-08T05:02:05;11.80;99.90
21167;DHT22;10741;52.272;9.580;2023-10-08T05:04:52;11.80;99.90
21167;DHT22;10741;52.272;9.580;2023-10-08T05:07:19;11.80;99.90
21167;DHT22;10741;52.272;9.580;2023-10-08T05:10:23;11.80;99.90
21167;DHT22;10741;52.272;9.580;2023-10-08T05:12:49;11.80;99.90
21167;DHT22;10741;52.272;9.580;2023-10-08T05:15:27;11.80;99.90
21167;DHT22;10741;52.272;9.580;2023-10-08T05:18:03;11.80;99.90
21167;DHT22;10741;52.272;9.580;2023-10-08T05:20:38;11.80;99.90
21167;DHT22;10741;52.272;9.580;2023-10-08T05:23:17;11.80;99.90
21167;DHT22;10741;52.272;9.580;2023-10-08T05:25:47;11.80;99.90
21167;DHT22;10741;52.272;9.580;2023-10-08T05:28:27;11.90;99.90
21167;DHT22;10741;52.272;9.580;2023-10-08T05:30:56;11.80;99.90
21167;DHT22;10741;52.272;9.580;2023-10-08T05:33:57;11.80;99.90
21167;DHT22;10741;52.272;9.580;2023-10-08T05:36:49;11.80;99.90
21167;DHT22;10741;52.272;9.580;2023-10-08T05:39:30;11.80;99.90
21167;DHT22;10741;52.272;9.580;2023-10-08T05:42:08;11.90;99.90
21167;DHT22;10741;52.272;9.580;2023-10-08T05:44:57;11.80;99.90
21167;DHT22;10741;52.272;9.580;2023-10-08T05:47:35;11.80;99.90
21167;DHT22;10741;52.272;9.580;2023-10-08T05:50:02;11.90;99.90
21167;DHT22;10741;52.272;9.580;2023-10-08T05:52:47;11.90;99.90
21167;DHT22;10741;52.272;9.580;2023-10-08T05:55:31;11.90;99.90
21167;DHT22;10741;52.272;9.580;2023-10-08T05:58:03;11.90;99.90
21167;DHT22;10741;52.272;9.580;2023-10-08T06:00:43;11.90;99.90
21167;DHT22;10741;52.272;9.580;2023-10-08T06:03:16;11.90;99.90
21167;DHT22;10741;52.272;9.580;2023-10-08T06:06:01;11.90;99.90
21167;DHT22;10741;52.272;9.580;2023-10-08T06:08:50;11.90;99.90
21167;DHT22;10741;52.272;9.580;2023-10-08T06:11:35;11.90;99.90
21167;DHT22;10741;52.272;9.580;2023-10-08T06:14:12;11.90;99.90
21167;DHT22;10741;52.272;9.580;2023-10-08T06:16:53;12.00;99.90
21167;DHT22;10741;52.272;9.580;2023-10-08T06:19:39;12.00;99.90
21167;DHT22;10741;52.272;9.580;2023-10-08T06:22:05;12.00;99.90
21167;DHT22;10741;52.272;9.580;2023-10-08T06:24:31;12.00;99.90
21167;DHT22;10741;52.272;9.580;2023-10-08T06:26:58;12.00;99.90
21167;DHT22;10741;52.272;9.580;2023-10-08T06:29:30;12.00;99.90
21167;DHT22;10741;52.272;9.580;2023-10-08T06:31:57;12.00;99.90
21167;DHT22;10741;52.272;9.580;2023-10-08T06:34:28;12.00;99.90
21167;DHT22;10741;52.272;9.580;2023-10-08T06:36:55;12.10;99.90
21167;DHT22;10741;52.272;9.580;2023-10-08T06:39:25;12.10;99.90
21167;DHT22;10741;52.272;9.580;2023-10-08T06:41:54;12.10;99.90
21167;DHT22;10741;52.272;9.580;2023-10-08T06:44:23;12.10;99.90
21167;DHT22;10741;52.272;9.580;2023-10-08T06:46:49;12.20;99.90
21167;DHT22;10741;52.272;9.580;2023-10-08T06:49:18;12.20;99.90
21167;DHT22;10741;52.272;9.580;2023-10-08T06:51:44;12.20;99.90
21167;DHT22;10741;52.272;9.580;2023-10-08T06:54:10;12.30;99.90
21167;DHT22;10741;52.272;9.580;2023-10-08T06:56:39;12.30;99.90
21167;DHT22;10741;52.272;9.580;2023-10-08T06:59:14;12.40;99.90
21167;DHT22;10741;52.272;9.580;2023-10-08T07:01:41;12.40;99.90
21167;DHT22;10741;52.272;9.580;2023-10-08T07:04:13;12.40;99.90
21167;DHT22;10741;52.272;9.580;2023-10-08T07:06:40;12.50;99.90
21167;DHT22;10741;52.272;9.580;2023-10-08T07:09:07;12.50;99.90
21167;DHT22;10741;52.272;9.580;2023-10-08T07:11:50;12.50;99.90
21167;DHT22;10741;52.272;9.580;2023-10-08T07:14:22;12.50;99.90
21167;DHT22;10741;52.272;9.580;2023-10-08T07:16:55;12.50;99.90
21167;DHT22;10741;52.272;9.580;2023-10-08T07:19:28;12.50;99.90
21167;DHT22;10741;52.272;9.580;2023-10-08T07:22:04;12.50;99.90
21167;DHT22;10741;52.272;9.580;2023-10-08T07:24:43;12.50;99.90
21167;DHT22;10741;52.272;9.580;2023-10-08T07:27:11;12.70;99.90
21167;DHT22;10741;52.272;9.580;2023-10-08T07:29:37;12.80;99.90
21167;DHT22;10741;52.272;9.580;2023-10-08T07:32:03;12.90;99.90
21167;DHT22;10741;52.272;9.580;2023-10-08T07:34:38;12.90;99.90
21167;DHT22;10741;52.272;9.580;2023-10-08T07:37:04;13.00;99.90
21167;DHT22;10741;52.272;9.580;2023-10-08T07:39:36;13.10;99.90
21167;DHT22;10741;52.272;9.580;2023-10-08T07:42:10;13.20;99.90
21167;DHT22;10741;52.272;9.580;2023-10-08T07:44:36;13.20;99.90
21167;DHT22;10741;52.272;9.580;2023-10-08T07:47:05;13.20;99.90
21167;DHT22;10741;52.272;9.580;2023-10-08T07:49:36;13.20;99.90
21167;DHT22;10741;52.272;9.580;2023-10-08T07:52:03;13.20;99.90
21167;DHT22;10741;52.272;9.580;2023-10-08T07:54:31;13.20;99.90
21167;DHT22;10741;52.272;9.580;2023-10-08T07:57:01;13.20;99.90
21167;DHT22;10741;52.272;9.580;2023-10-08T07:59:45;13.30;99.90
21167;DHT22;10741;52.272;9.580;2023-10-08T08:02:20;13.50;99.90
21167;DHT22;10741;52.272;9.580;2023-10-08T08:04:52;13.70;99.90
21167;DHT22;10741;52.272;9.580;2023-10-08T08:07:22;13.90;99.90
21167;DHT22;10741;52.272;9.580;2023-10-08T08:09:51;14.20;99.90
21167;DHT22;10741;52.272;9.580;2023-10-08T08:12:18;14.60;99.90
21167;DHT22;10741;52.272;9.580;2023-10-08T08:14:45;15.20;99.90
21167;DHT22;10741;52.272;9.580;2023-10-08T08:17:11;15.90;99.90
21167;DHT22;10741;52.272;9.580;2023-10-08T08:22:05;17.20;99.90
21167;DHT22;10741;52.272;9.580;2023-10-08T08:24:31;17.50;99.90
21167;DHT22;10741;52.272;9.580;2023-10-08T08:27:01;18.00;99.90
21167;DHT22;10741;52.272;9.580;2023-10-08T08:29:34;18.30;99.90
21167;DHT22;10741;52.272;9.580;2023-10-08T08:32:10;18.50;99.90
21167;DHT22;10741;52.272;9.580;2023-10-08T08:34:41;18.40;99.90
21167;DHT22;10741;52.272;9.580;2023-10-08T08:37:12;18.10;99.90
21167;DHT22;10741;52.272;9.580;2023-10-08T08:39:41;17.70;99.90
21167;DHT22;10741;52.272;9.580;2023-10-08T08:42:07;17.70;99.90
21167;DHT22;10741;52.272;9.580;2023-10-08T08:44:36;17.80;99.90
21167;DHT22;10741;52.272;9.580;2023-10-08T08:47:05;17.70;99.90
21167;DHT22;10741;52.272;9.580;2023-10-08T08:49:36;17.50;99.90
21167;DHT22;10741;52.272;9.580;2023-10-08T08:52:05;17.20;99.90
21167;DHT22;10741;52.272;9.580;2023-10-08T08:54:31;16.90;99.90
21167;DHT22;10741;52.272;9.580;2023-10-08T08:57:00;16.60;99.90
21167;DHT22;10741;52.272;9.580;2023-10-08T08:59:30;16.30;99.90
21167;DHT22;10741;52.272;9.580;2023-10-08T09:01:59;16.20;99.90
21167;DHT22;10741;52.272;9.580;2023-10-08T09:04:32;16.10;99.90
21167;DHT22;10741;52.272;9.580;2023-10-08T09:07:01;16.10;99.90
21167;DHT22;10741;52.272;9.580;2023-10-08T09:09:34;15.80;99.90
21167;DHT22;10741;52.272;9.580;2023-10-08T09:12:01;15.80;99.90
21167;DHT22;10741;52.272;9.580;2023-10-08T09:14:27;15.80;99.90
21167;DHT22;10741;52.272;9.580;2023-10-08T09:16:58;15.80;99.90
21167;DHT22;10741;52.272;9.580;2023-10-08T09:19:25;15.60;99.90
21167;DHT22;10741;52.272;9.580;2023-10-08T09:22:08;15.30;99.90
21167;DHT22;10741;52.272;9.580;2023-10-08T09:24:37;15.30;99.90
21167;DHT22;10741;52.272;9.580;2023-10-08T09:27:07;15.20;99.90
21167;DHT22;10741;52.272;9.580;2023-10-08T09:29:34;15.20;99.90
21167;DHT22;10741;52.272;9.580;2023-10-08T09:32:09;15.30;99.90
21167;DHT22;10741;52.272;9.580;2023-10-08T09:34:36;15.30;99.90
21167;DHT22;10741;52.272;9.580;2023-10-08T09:37:02;15.10;99.90
21167;DHT22;10741;52.272;9.580;2023-10-08T09:39:30;15.00;99.90
21167;DHT22;10741;52.272;9.580;2023-10-08T09:42:00;15.00;99.90
21167;DHT22;10741;52.272;9.580;2023-10-08T09:44:28;15.00;99.90
21167;DHT22;10741;52.272;9.580;2023-10-08T09:47:05;15.00;99.90
21167;DHT22;10741;52.272;9.580;2023-10-08T09:49:46;15.00;99.90
21167;DHT22;10741;52.272;9.580;2023-10-08T09:52:16;15.10;99.90
21167;DHT22;10741;52.272;9.580;2023-10-08T09:55:08;15.00;99.90
21167;DHT22;10741;52.272;9.580;2023-10-08T09:57:36;15.10;99.90
21167;DHT22;10741;52.272;9.580;2023-10-08T10:00:05;15.10;99.90
21167;DHT22;10741;52.272;9.580;2023-10-08T10:02:43;14.80;99.90
21167;DHT22;10741;52.272;9.580;2023-10-08T10:05:13;14.80;99.90
21167;DHT22;10741;52.272;9.580;2023-10-08T10:07:47;14.70;99.90
21167;DHT22;10741;52.272;9.580;2023-10-08T10:10:30;14.70;99.90
21167;DHT22;10741;52.272;9.580;2023-10-08T10:13:06;14.70;99.90
21167;DHT22;10741;52.272;9.580;2023-10-08T10:15:38;14.70;99.90
21167;DHT22;10741;52.272;9.580;2023-10-08T10:18:13;14.90;99.90
21167;DHT22;10741;52.272;9.580;2023-10-08T10:20:44;15.00;99.90
21167;DHT22;10741;52.272;9.580;2023-10-08T10:26:33;15.30;99.90
21167;DHT22;10741;52.272;9.580;2023-10-08T10:31:51;15.70;99.90
21167;DHT22;10741;52.272;9.580;2023-10-08T10:34:27;15.70;99.90
21167;DHT22;10741;52.272;9.580;2023-10-08T10:36:55;15.90;99.90
21167;DHT22;10741;52.272;9.580;2023-10-08T10:39:23;15.80;99.90
21167;DHT22;10741;52.272;9.580;2023-10-08T10:41:53;15.80;99.90
21167;DHT22;10741;52.272;9.580;2023-10-08T10:44:33;15.60;99.90
21167;DHT22;10741;52.272;9.580;2023-10-08T10:47:02;15.70;99.90
21167;DHT22;10741;52.272;9.580;2023-10-08T10:49:47;15.50;99.90
21167;DHT22;10741;52.272;9.580;2023-10-08T10:52:26;15.60;99.90
21167;DHT22;10741;52.272;9.580;2023-10-08T10:55:05;15.70;99.90
21167;DHT22;10741;52.272;9.580;2023-10-08T10:57:44;15.90;99.90
21167;DHT22;10741;52.272;9.580;2023-10-08T11:00:19;16.10;99.90
21167;DHT22;10741;52.272;9.580;2023-10-08T11:02:59;16.10;99.90
21167;DHT22;10741;52.272;9.580;2023-10-08T11:05:46;15.90;99.90
21167;DHT22;10741;52.272;9.580;2023-10-08T11:08:15;15.90;99.90
21167;DHT22;10741;52.272;9.580;2023-10-08T11:10:43;15.90;99.90
21167;DHT22;10741;52.272;9.580;2023-10-08T11:13:19;16.00;99.90
21167;DHT22;10741;52.272;9.580;2023-10-08T11:15:50;16.10;99.90
21167;DHT22;10741;52.272;9.580;2023-10-08T11:18:26;16.20;99.90
21167;DHT22;10741;52.272;9.580;2023-10-08T11:20:53;16.30;99.90
21167;DHT22;10741;52.272;9.580;2023-10-08T11:23:46;16.10;99.90
21167;DHT22;10741;52.272;9.580;2023-10-08T11:26:20;16.20;99.90
21167;DHT22;10741;52.272;9.580;2023-10-08T11:28:47;15.90;99.90
21167;DHT22;10741;52.272;9.580;2023-10-08T11:31:15;15.80;99.90
21167;DHT22;10741;52.272;9.580;2023-10-08T11:33:45;15.70;99.90
21167;DHT22;10741;52.272;9.580;2023-10-08T11:36:20;15.60;99.90
21167;DHT22;10741;52.272;9.580;2023-10-08T11:38:57;15.60;99.90
21167;DHT22;10741;52.272;9.580;2023-10-08T11:41:33;15.70;99.90
21167;DHT22;10741;52.272;9.580;2023-10-08T11:44:15;15.90;99.90
21167;DHT22;10741;52.272;9.580;2023-10-08T11:46:45;16.10;99.90
21167;DHT22;10741;52.272;9.580;2023-10-08T11:49:11;16.30;99.90
21167;DHT22;10741;52.272;9.580;2023-10-08T11:51:51;16.40;99.90
21167;DHT22;10741;52.272;9.580;2023-10-08T11:54:21;16.70;99.90
21167;DHT22;10741;52.272;9.580;2023-10-08T11:56:49;17.00;99.90
21167;DHT22;10741;52.272;9.580;2023-10-08T11:59:14;17.10;99.90
21167;DHT22;10741;52.272;9.580;2023-10-08T12:01:43;17.00;99.90
21167;DHT22;10741;52.272;9.580;2023-10-08T12:04:10;16.90;99.90
21167;DHT22;10741;52.272;9.580;2023-10-08T12:06:41;16.90;99.90
21167;DHT22;10741;52.272;9.580;2023-10-08T12:09:13;17.20;99.90
21167;DHT22;10741;52.272;9.580;2023-10-08T12:11:42;17.10;99.90
21167;DHT22;10741;52.272;9.580;2023-10-08T12:14:09;17.00;99.90
21167;DHT22;10741;52.272;9.580;2023-10-08T12:16:36;16.80;99.90
21167;DHT22;10741;52.272;9.580;2023-10-08T12:19:03;16.80;99.90
21167;DHT22;10741;52.272;9.580;2023-10-08T12:21:41;16.80;99.90
21167;DHT22;10741;52.272;9.580;2023-10-08T12:24:07;16.60;99.90
21167;DHT22;10741;52.272;9.580;2023-10-08T12:26:36;16.50;99.90
21167;DHT22;10741;52.272;9.580;2023-10-08T12:29:02;16.50;99.90
21167;DHT22;10741;52.272;9.580;2023-10-08T12:31:28;16.60;99.90
21167;DHT22;10741;52.272;9.580;2023-10-08T12:33:54;16.50;99.90
21167;DHT22;10741;52.272;9.580;2023-10-08T12:36:25;16.60;99.90
21167;DHT22;10741;52.272;9.580;2023-10-08T12:38:52;17.20;99.90
21167;DHT22;10741;52.272;9.580;2023-10-08T12:41:25;18.00;99.90
21167;DHT22;10741;52.272;9.580;2023-10-08T12:43:52;18.60;99.90
21167;DHT22;10741;52.272;9.580;2023-10-08T12:46:19;18.90;99.90
21167;DHT22;10741;52.272;9.580;2023-10-08T12:48:50;19.40;99.90
21167;DHT22;10741;52.272;9.580;2023-10-08T12:51:21;19.90;99.90
21167;DHT22;10741;52.272;9.580;2023-10-08T12:53:50;20.00;99.90
21167;DHT22;10741;52.272;9.580;2023-10-08T12:56:20;19.60;99.90
21167;DHT22;10741;52.272;9.580;2023-10-08T12:58:58;19.30;99.90
21167;DHT22;10741;52.272;9.580;2023-10-08T13:01:24;19.90;99.90
21167;DHT22;10741;52.272;9.580;2023-10-08T13:03:55;19.70;99.90
21167;DHT22;10741;52.272;9.580;2023-10-08T13:06:26;19.00;99.90
21167;DHT22;10741;52.272;9.580;2023-10-08T13:08:58;18.60;99.90
21167;DHT22;10741;52.272;9.580;2023-10-08T13:11:27;18.20;99.90
21167;DHT22;10741;52.272;9.580;2023-10-08T13:13:56;17.90;99.90
21167;DHT22;10741;52.272;9.580;2023-10-08T13:16:23;17.70;99.90
21167;DHT22;10741;52.272;9.580;2023-10-08T13:18:49;17.40;99.90
21167;DHT22;10741;52.272;9.580;2023-10-08T13:21:15;17.30;99.90
21167;DHT22;10741;52.272;9.580;2023-10-08T13:23:42;17.20;99.90
21167;DHT22;10741;52.272;9.580;2023-10-08T13:26:08;17.30;99.90
21167;DHT22;10741;52.272;9.580;2023-10-08T13:28:35;17.40;99.90
21167;DHT22;10741;52.272;9.580;2023-10-08T13:31:02;17.50;99.90
21167;DHT22;10741;52.272;9.580;2023-10-08T13:33:41;17.90;99.90
21167;DHT22;10741;52.272;9.580;2023-10-08T13:36:14;18.40;99.90
21167;DHT22;10741;52.272;9.580;2023-10-08T13:38:40;18.50;99.90
21167;DHT22;10741;52.272;9.580;2023-10-08T13:41:07;18.50;99.90
21167;DHT22;10741;52.272;9.580;2023-10-08T13:43:44;18.60;99.90
21167;DHT22;10741;52.272;9.580;2023-10-08T13:46:15;18.80;99.90
21167;DHT22;10741;52.272;9.580;2023-10-08T13:48:43;19.00;99.90
21167;DHT22;10741;52.272;9.580;2023-10-08T13:51:12;18.60;99.90
21167;DHT22;10741;52.272;9.580;2023-10-08T13:53:57;18.40;99.90
21167;DHT22;10741;52.272;9.580;2023-10-08T13:56:27;18.30;99.90
21167;DHT22;10741;52.272;9.580;2023-10-08T13:58:55;18.40;99.90
21167;DHT22;10741;52.272;9.580;2023-10-08T14:01:33;18.50;99.90
21167;DHT22;10741;52.272;9.580;2023-10-08T14:04:04;18.90;99.90
21167;DHT22;10741;52.272;9.580;2023-10-08T14:06:37;19.00;99.90
21167;DHT22;10741;52.272;9.580;2023-10-08T14:09:06;19.40;99.90
21167;DHT22;10741;52.272;9.580;2023-10-08T14:11:34;19.40;99.90
21167;DHT22;10741;52.272;9.580;2023-10-08T14:14:01;19.40;99.90
21167;DHT22;10741;52.272;9.580;2023-10-08T14:16:39;19.50;99.90
21167;DHT22;10741;52.272;9.580;2023-10-08T14:19:10;19.30;99.90
21167;DHT22;10741;52.272;9.580;2023-10-08T14:21:39;19.00;99.90
21167;DHT22;10741;52.272;9.580;2023-10-08T14:24:16;18.70;99.90
21167;DHT22;10741;52.272;9.580;2023-10-08T14:26:42;18.30;99.90
21167;DHT22;10741;52.272;9.580;2023-10-08T14:29:09;18.20;99.90
21167;DHT22;10741;52.272;9.580;2023-10-08T14:31:41;18.00;99.90
21167;DHT22;10741;52.272;9.580;2023-10-08T14:34:09;17.70;99.90
21167;DHT22;10741;52.272;9.580;2023-10-08T14:36:41;17.40;99.90
21167;DHT22;10741;52.272;9.580;2023-10-08T14:39:25;17.20;99.90
21167;DHT22;10741;52.272;9.580;2023-10-08T14:42:09;17.00;99.90
21167;DHT22;10741;52.272;9.580;2023-10-08T14:44:53;16.80;99.90
21167;DHT22;10741;52.272;9.580;2023-10-08T14:47:19;16.70;99.90
21167;DHT22;10741;52.272;9.580;2023-10-08T14:49:45;16.60;99.90
21167;DHT22;10741;52.272;9.580;2023-10-08T14:52:12;16.50;99.90
21167;DHT22;10741;52.272;9.580;2023-10-08T14:54:37;16.40;99.90
21167;DHT22;10741;52.272;9.580;2023-10-08T14:57:03;16.50;99.90
21167;DHT22;10741;52.272;9.580;2023-10-08T14:59:31;16.40;99.90
21167;DHT22;10741;52.272;9.580;2023-10-08T15:01:58;16.40;99.90
21167;DHT22;10741;52.272;9.580;2023-10-08T15:04:27;16.40;99.90
21167;DHT22;10741;52.272;9.580;2023-10-08T15:06:54;16.40;99.90
21167;DHT22;10741;52.272;9.580;2023-10-08T15:09:22;16.40;99.90
21167;DHT22;10741;52.272;9.580;2023-10-08T15:11:50;16.50;99.90
21167;DHT22;10741;52.272;9.580;2023-10-08T15:14:19;16.60;99.90
21167;DHT22;10741;52.272;9.580;2023-10-08T15:16:46;16.60;99.90
21167;DHT22;10741;52.272;9.580;2023-10-08T15:19:21;16.60;99.90
21167;DHT22;10741;52.272;9.580;2023-10-08T15:21:50;16.60;99.90
21167;DHT22;10741;52.272;9.580;2023-10-08T15:24:19;16.60;99.90
21167;DHT22;10741;52.272;9.580;2023-10-08T15:26:53;16.50;99.90
21167;DHT22;10741;52.272;9.580;2023-10-08T15:29:20;16.40;99.90
21167;DHT22;10741;52.272;9.580;2023-10-08T15:31:53;16.20;99.90
21167;DHT22;10741;52.272;9.580;2023-10-08T15:34:22;16.10;99.90
21167;DHT22;10741;52.272;9.580;2023-10-08T15:36:49;16.00;99.90
21167;DHT22;10741;52.272;9.580;2023-10-08T15:39:15;15.90;99.90
21167;DHT22;10741;52.272;9.580;2023-10-08T15:41:48;15.90;99.90
21167;DHT22;10741;52.272;9.580;2023-10-08T15:44:15;15.90;99.90
21167;DHT22;10741;52.272;9.580;2023-10-08T15:46:42;15.90;99.90
21167;DHT22;10741;52.272;9.580;2023-10-08T15:49:08;15.80;99.90
21167;DHT22;10741;52.272;9.580;2023-10-08T15:51:35;15.80;99.90
21167;DHT22;10741;52.272;9.580;2023-10-08T15:54:01;15.80;99.90
21167;DHT22;10741;52.272;9.580;2023-10-08T15:56:27;15.70;99.90
21167;DHT22;10741;52.272;9.580;2023-10-08T15:58:53;15.60;99.90
21167;DHT22;10741;52.272;9.580;2023-10-08T16:01:19;15.40;99.90
21167;DHT22;10741;52.272;9.580;2023-10-08T16:03:45;15.30;99.90
21167;DHT22;10741;52.272;9.580;2023-10-08T16:06:11;15.20;99.90